Humidity-temperature Sensor

Selected Measurement Type: Air Temperature

 
Air Temperature [°C]     6 entries per hour
Showing data from 8/13/2020 (00:00:00 Z) to 8/12/2020 (00:01:00 Z)
Previous Next [ Day | 3-Days | 7-Days ]
First Last
Prev [ Day | 3-Days | 7-Days ] Next
First Last

Start Time:     :
End Time:     :     
Time (in GMT) :00 :50 :40 :30 :20 :10
Previous Next [ Day | 3-Days | 7-Days ]
First Last
Prev [ Day | 3-Days | 7-Days ] Next
First Last


123 => good data
MM => data is determined as missing
-- => data not received/configured
Back to Top Back to Top
8/13/2020 00:00 to 23:10 28.08 28.14 28.06 28.11 27.89 27.93
8/12/2020 23:00 to 22:10 27.99 27.96 28.05 27.93 27.88 27.90
8/12/2020 22:00 to 21:10 27.76 27.74 27.90 27.78 27.84 27.83
8/12/2020 21:00 to 20:10 27.77 27.69 27.57 27.61 27.90 27.95
8/12/2020 20:00 to 19:10 27.96 28.06 27.95 28.03 28.00 27.95
8/12/2020 19:00 to 18:10 27.86 27.82 27.49 27.62 27.38 27.42
8/12/2020 18:00 to 17:10 27.37 27.26 27.05 26.82 26.66 26.66
8/12/2020 17:00 to 16:10 26.58 26.49 26.40 26.36 26.23 26.17
8/12/2020 16:00 to 15:10 26.13 26.04 26.25 26.31 26.26 26.64
8/12/2020 15:00 to 14:10 27.16 27.14 26.43 26.29 26.47 27.35
8/12/2020 14:00 to 13:10 26.98 26.89 27.38 27.15 27.06 26.87
8/12/2020 13:00 to 12:10 26.66 27.25 27.72 27.65 27.65 27.65
8/12/2020 12:00 to 11:10 27.57 27.46 27.53 27.55 27.68 27.70
8/12/2020 11:00 to 10:10 27.67 27.77 27.94 27.67 27.56 27.62
8/12/2020 10:00 to 9:10 27.89 27.90 27.95 27.94 28.00 27.78
8/12/2020 09:00 to 8:10 27.85 28.00 28.14 28.07 28.10 28.07
8/12/2020 08:00 to 7:10 27.86 27.51 27.49 27.42 27.36 27.44
8/12/2020 07:00 to 6:10 27.35 27.31 27.37 27.29 27.32 27.24
8/12/2020 06:00 to 5:10 27.33 27.38 27.61 27.50 27.39 27.74
8/12/2020 05:00 to 4:10 27.38 27.43 27.42 28.08 27.98 27.64
8/12/2020 04:00 to 3:10 27.52 27.29 27.42 27.33 27.32 27.25
8/12/2020 03:00 to 2:10 27.24 27.23 27.45 27.38 27.17 26.91
8/12/2020 02:00 to 1:10 27.35 27.49 27.36 27.45 27.31 27.28
8/12/2020 01:00 to 0:10 27.17 27.25 27.14 27.01 27.02 27.04